sensor_id;sensor_type;location;lat;lon;timestamp;pressure;altitude;pressure_sealevel;temperature;humidity
70323;BME280;57735;56.264;43.898;2023-04-09T00:00:43;102006.84;;;2.21;46.94
70323;BME280;57735;56.264;43.898;2023-04-09T00:03:14;102008.69;;;2.19;46.79
70323;BME280;57735;56.264;43.898;2023-04-09T00:05:47;102009.81;;;2.14;47.00
70323;BME280;57735;56.264;43.898;2023-04-09T00:08:17;102009.16;;;2.07;47.50
70323;BME280;57735;56.264;43.898;2023-04-09T00:10:48;102013.75;;;2.02;47.96
70323;BME280;57735;56.264;43.898;2023-04-09T00:13:19;102009.53;;;1.98;47.08
70323;BME280;57735;56.264;43.898;2023-04-09T00:15:50;102007.03;;;1.95;47.02
70323;BME280;57735;56.264;43.898;2023-04-09T00:18:21;102005.41;;;1.91;46.88
70323;BME280;57735;56.264;43.898;2023-04-09T00:20:51;102007.28;;;1.87;46.91
70323;BME280;57735;56.264;43.898;2023-04-09T00:23:22;102000.53;;;1.82;47.16
70323;BME280;57735;56.264;43.898;2023-04-09T00:25:52;102005.88;;;1.79;47.55
70323;BME280;57735;56.264;43.898;2023-04-09T00:28:23;102006.97;;;1.73;48.12
70323;BME280;57735;56.264;43.898;2023-04-09T00:30:53;102003.53;;;1.71;47.96
70323;BME280;57735;56.264;43.898;2023-04-09T00:33:24;102003.59;;;1.69;48.03
70323;BME280;57735;56.264;43.898;2023-04-09T00:35:55;102000.25;;;1.66;48.14
70323;BME280;57735;56.264;43.898;2023-04-09T00:38:26;102007.38;;;1.62;48.83
70323;BME280;57735;56.264;43.898;2023-04-09T00:40:56;102002.22;;;1.59;48.63
70323;BME280;57735;56.264;43.898;2023-04-09T00:43:27;102003.25;;;1.55;48.68
70323;BME280;57735;56.264;43.898;2023-04-09T00:46:00;101998.94;;;1.53;49.76
70323;BME280;57735;56.264;43.898;2023-04-09T00:48:33;101995.56;;;1.51;49.31
70323;BME280;57735;56.264;43.898;2023-04-09T00:51:04;101995.59;;;1.49;49.28
70323;BME280;57735;56.264;43.898;2023-04-09T00:53:35;102000.84;;;1.49;48.47
70323;BME280;57735;56.264;43.898;2023-04-09T00:56:05;102004.41;;;1.48;49.04
70323;BME280;57735;56.264;43.898;2023-04-09T00:58:38;102004.44;;;1.47;48.84
70323;BME280;57735;56.264;43.898;2023-04-09T01:01:09;102005.41;;;1.44;49.01
70323;BME280;57735;56.264;43.898;2023-04-09T01:03:40;101999.41;;;1.40;49.31
70323;BME280;57735;56.264;43.898;2023-04-09T01:10:01;102003.91;;;1.37;50.04
70323;BME280;57735;56.264;43.898;2023-04-09T01:15:13;102001.47;;;1.32;49.77
70323;BME280;57735;56.264;43.898;2023-04-09T01:23:06;102000.91;;;1.23;49.80
70323;BME280;57735;56.264;43.898;2023-04-09T01:25:52;102004.56;;;1.19;49.99
70323;BME280;57735;56.264;43.898;2023-04-09T01:28:30;102005.59;;;1.15;50.50
70323;BME280;57735;56.264;43.898;2023-04-09T01:31:03;102008.28;;;1.13;50.38
70323;BME280;57735;56.264;43.898;2023-04-09T01:33:36;102003.06;;;1.12;49.99
70323;BME280;57735;56.264;43.898;2023-04-09T01:36:07;102004.00;;;1.11;50.24
70323;BME280;57735;56.264;43.898;2023-04-09T01:38:39;102000.50;;;1.10;50.31
70323;BME280;57735;56.264;43.898;2023-04-09T01:41:16;102000.56;;;1.09;50.55
70323;BME280;57735;56.264;43.898;2023-04-09T01:43:50;102001.47;;;1.08;50.25
70323;BME280;57735;56.264;43.898;2023-04-09T01:46:21;101999.78;;;1.05;50.40
70323;BME280;57735;56.264;43.898;2023-04-09T01:48:52;102012.06;;;1.04;50.34
70323;BME280;57735;56.264;43.898;2023-04-09T01:51:23;102005.09;;;1.03;50.59
70323;BME280;57735;56.264;43.898;2023-04-09T01:53:54;102005.16;;;1.02;51.59
70323;BME280;57735;56.264;43.898;2023-04-09T01:56:24;102005.09;;;1.03;51.60
70323;BME280;57735;56.264;43.898;2023-04-09T01:58:55;101999.84;;;1.03;51.51
70323;BME280;57735;56.264;43.898;2023-04-09T02:01:31;102011.16;;;1.05;51.51
70323;BME280;57735;56.264;43.898;2023-04-09T02:04:03;102008.53;;;1.05;51.00
70323;BME280;57735;56.264;43.898;2023-04-09T02:06:43;102006.81;;;1.04;51.08
70323;BME280;57735;56.264;43.898;2023-04-09T02:09:13;102010.41;;;1.02;51.48
70323;BME280;57735;56.264;43.898;2023-04-09T02:11:46;102015.72;;;1.00;51.54
70323;BME280;57735;56.264;43.898;2023-04-09T02:14:24;102014.06;;;0.98;52.12
70323;BME280;57735;56.264;43.898;2023-04-09T02:16:55;102017.66;;;0.95;51.94
70323;BME280;57735;56.264;43.898;2023-04-09T02:22:09;102019.47;;;0.93;51.43
70323;BME280;57735;56.264;43.898;2023-04-09T02:24:40;102011.63;;;0.92;51.54
70323;BME280;57735;56.264;43.898;2023-04-09T02:27:10;102016.03;;;0.91;51.91
70323;BME280;57735;56.264;43.898;2023-04-09T02:29:42;102012.59;;;0.89;52.28
70323;BME280;57735;56.264;43.898;2023-04-09T02:32:12;102015.25;;;0.88;52.60
70323;BME280;57735;56.264;43.898;2023-04-09T02:34:45;102015.25;;;0.88;51.88
70323;BME280;57735;56.264;43.898;2023-04-09T02:37:16;102026.63;;;0.88;52.26
70323;BME280;57735;56.264;43.898;2023-04-09T02:39:49;102016.13;;;0.88;52.63
70323;BME280;57735;56.264;43.898;2023-04-09T02:42:22;102017.84;;;0.89;52.96
70323;BME280;57735;56.264;43.898;2023-04-09T02:44:53;102023.00;;;0.92;52.73
70323;BME280;57735;56.264;43.898;2023-04-09T02:47:26;102011.59;;;0.93;52.32
70323;BME280;57735;56.264;43.898;2023-04-09T02:49:56;102024.63;;;0.96;52.16
70323;BME280;57735;56.264;43.898;2023-04-09T02:52:27;102005.31;;;0.97;52.54
70323;BME280;57735;56.264;43.898;2023-04-09T02:54:57;102017.50;;;1.00;52.55
70323;BME280;57735;56.264;43.898;2023-04-09T02:57:28;102013.09;;;1.00;52.92
70323;BME280;57735;56.264;43.898;2023-04-09T02:59:58;102011.19;;;1.04;53.16
70323;BME280;57735;56.264;43.898;2023-04-09T03:02:29;102009.38;;;1.06;53.67
70323;BME280;57735;56.264;43.898;2023-04-09T03:04:59;102014.50;;;1.11;53.72
70323;BME280;57735;56.264;43.898;2023-04-09T03:07:32;102015.25;;;1.14;54.14
70323;BME280;57735;56.264;43.898;2023-04-09T03:10:03;102021.06;;;1.22;54.47
70323;BME280;57735;56.264;43.898;2023-04-09T03:12:34;102009.50;;;1.28;54.29
70323;BME280;57735;56.264;43.898;2023-04-09T03:15:05;102009.34;;;1.32;55.20
70323;BME280;57735;56.264;43.898;2023-04-09T03:17:35;102014.38;;;1.38;55.01
70323;BME280;57735;56.264;43.898;2023-04-09T03:20:06;102010.66;;;1.44;55.29
70323;BME280;57735;56.264;43.898;2023-04-09T03:22:37;102013.94;;;1.51;55.05
70323;BME280;57735;56.264;43.898;2023-04-09T03:25:08;102012.78;;;1.58;55.12
70323;BME280;57735;56.264;43.898;2023-04-09T03:27:41;102014.25;;;1.66;55.55
70323;BME280;57735;56.264;43.898;2023-04-09T03:30:11;102012.97;;;1.77;55.30
70323;BME280;57735;56.264;43.898;2023-04-09T03:32:44;102010.06;;;1.84;55.80
70323;BME280;57735;56.264;43.898;2023-04-09T03:35:15;102012.38;;;1.92;56.08
70323;BME280;57735;56.264;43.898;2023-04-09T03:37:46;102009.44;;;2.01;55.10
70323;BME280;57735;56.264;43.898;2023-04-09T03:40:16;102006.44;;;2.10;55.33
70323;BME280;57735;56.264;43.898;2023-04-09T03:42:47;102007.81;;;2.19;54.78
70323;BME280;57735;56.264;43.898;2023-04-09T03:45:17;102003.06;;;2.28;54.96
70323;BME280;57735;56.264;43.898;2023-04-09T03:47:48;102010.34;;;2.43;54.69
70323;BME280;57735;56.264;43.898;2023-04-09T03:50:20;101997.53;;;2.56;53.97
70323;BME280;57735;56.264;43.898;2023-04-09T03:52:51;102005.66;;;2.72;53.78
70323;BME280;57735;56.264;43.898;2023-04-09T03:55:21;102005.94;;;2.86;53.37
70323;BME280;57735;56.264;43.898;2023-04-09T03:57:52;102001.91;;;2.99;52.79
70323;BME280;57735;56.264;43.898;2023-04-09T04:00:22;101998.59;;;3.14;51.96
70323;BME280;57735;56.264;43.898;2023-04-09T04:02:53;101998.06;;;3.27;51.57
70323;BME280;57735;56.264;43.898;2023-04-09T04:05:23;102001.06;;;3.38;50.58
70323;BME280;57735;56.264;43.898;2023-04-09T04:07:55;101998.84;;;3.49;50.33
70323;BME280;57735;56.264;43.898;2023-04-09T04:10:26;102003.59;;;3.60;49.90
70323;BME280;57735;56.264;43.898;2023-04-09T04:12:58;102006.66;;;3.69;49.83
70323;BME280;57735;56.264;43.898;2023-04-09T04:15:31;102010.56;;;3.81;49.50
70323;BME280;57735;56.264;43.898;2023-04-09T04:18:01;102006.47;;;3.93;49.40
70323;BME280;57735;56.264;43.898;2023-04-09T04:20:32;102002.34;;;4.06;49.36
70323;BME280;57735;56.264;43.898;2023-04-09T04:23:03;101994.78;;;4.17;49.33
70323;BME280;57735;56.264;43.898;2023-04-09T04:25:36;101993.13;;;4.33;49.32
70323;BME280;57735;56.264;43.898;2023-04-09T04:28:06;101991.53;;;4.48;49.12
70323;BME280;57735;56.264;43.898;2023-04-09T04:30:39;101994.41;;;4.61;48.64
70323;BME280;57735;56.264;43.898;2023-04-09T04:33:10;101989.28;;;4.75;48.19
70323;BME280;57735;56.264;43.898;2023-04-09T04:35:43;101984.31;;;4.86;47.35
70323;BME280;57735;56.264;43.898;2023-04-09T04:38:14;101981.78;;;5.02;46.75
70323;BME280;57735;56.264;43.898;2023-04-09T04:40:44;101978.56;;;5.12;46.40
70323;BME280;57735;56.264;43.898;2023-04-09T04:43:15;101981.41;;;5.25;45.63
70323;BME280;57735;56.264;43.898;2023-04-09T04:45:45;101991.44;;;5.36;45.17
70323;BME280;57735;56.264;43.898;2023-04-09T04:48:16;101984.03;;;5.42;44.89
70323;BME280;57735;56.264;43.898;2023-04-09T04:50:53;101994.13;;;5.51;44.82
70323;BME280;57735;56.264;43.898;2023-04-09T04:53:23;101994.50;;;5.61;44.18
70323;BME280;57735;56.264;43.898;2023-04-09T04:55:56;102002.88;;;5.69;43.91
70323;BME280;57735;56.264;43.898;2023-04-09T04:58:27;101990.84;;;5.79;44.15
70323;BME280;57735;56.264;43.898;2023-04-09T05:00:58;101994.78;;;5.88;43.46
70323;BME280;57735;56.264;43.898;2023-04-09T05:03:29;101993.47;;;5.97;43.14
70323;BME280;57735;56.264;43.898;2023-04-09T05:06:00;101997.47;;;6.04;42.87
70323;BME280;57735;56.264;43.898;2023-04-09T05:08:30;101994.31;;;6.13;42.78
70323;BME280;57735;56.264;43.898;2023-04-09T05:11:01;101994.84;;;6.19;41.73
70323;BME280;57735;56.264;43.898;2023-04-09T05:13:31;102008.31;;;6.30;42.16
70323;BME280;57735;56.264;43.898;2023-04-09T05:16:02;101997.19;;;6.40;41.98
70323;BME280;57735;56.264;43.898;2023-04-09T05:18:33;102000.28;;;6.48;41.43
70323;BME280;57735;56.264;43.898;2023-04-09T05:21:06;102000.59;;;6.57;41.34
70323;BME280;57735;56.264;43.898;2023-04-09T05:23:38;101996.50;;;6.68;40.96
70323;BME280;57735;56.264;43.898;2023-04-09T05:26:08;102002.94;;;6.78;40.71
70323;BME280;57735;56.264;43.898;2023-04-09T05:28:41;101999.66;;;6.88;39.63
70323;BME280;57735;56.264;43.898;2023-04-09T05:31:11;101993.66;;;7.00;39.64
70323;BME280;57735;56.264;43.898;2023-04-09T05:33:42;101994.81;;;7.11;39.52
70323;BME280;57735;56.264;43.898;2023-04-09T05:36:16;101992.47;;;7.20;39.47
70323;BME280;57735;56.264;43.898;2023-04-09T05:38:46;101997.22;;;7.29;38.57
70323;BME280;57735;56.264;43.898;2023-04-09T05:41:17;101998.34;;;7.40;37.88
70323;BME280;57735;56.264;43.898;2023-04-09T05:43:47;101993.25;;;7.51;37.04
70323;BME280;57735;56.264;43.898;2023-04-09T05:46:18;101997.13;;;7.59;36.71
70323;BME280;57735;56.264;43.898;2023-04-09T05:48:48;101993.81;;;7.70;36.28
70323;BME280;57735;56.264;43.898;2023-04-09T05:51:19;101997.69;;;7.79;35.53
70323;BME280;57735;56.264;43.898;2023-04-09T05:53:49;102004.97;;;7.89;36.06
70323;BME280;57735;56.264;43.898;2023-04-09T05:56:20;101991.22;;;7.97;36.55
70323;BME280;57735;56.264;43.898;2023-04-09T05:58:53;102004.75;;;8.06;36.13
70323;BME280;57735;56.264;43.898;2023-04-09T06:01:24;101994.50;;;8.15;35.66
70323;BME280;57735;56.264;43.898;2023-04-09T06:03:54;101995.63;;;8.25;35.53
70323;BME280;57735;56.264;43.898;2023-04-09T06:06:25;101996.03;;;8.33;35.60
70323;BME280;57735;56.264;43.898;2023-04-09T06:08:56;101991.91;;;8.42;35.59
70323;BME280;57735;56.264;43.898;2023-04-09T06:11:26;101998.22;;;8.53;35.90
70323;BME280;57735;56.264;43.898;2023-04-09T06:13:57;101992.31;;;8.62;35.84
70323;BME280;57735;56.264;43.898;2023-04-09T06:16:27;102000.50;;;8.72;35.32
70323;BME280;57735;56.264;43.898;2023-04-09T06:18:58;101998.09;;;8.82;35.13
70323;BME280;57735;56.264;43.898;2023-04-09T06:21:29;101997.47;;;8.91;35.25
70323;BME280;57735;56.264;43.898;2023-04-09T06:24:00;102002.19;;;9.00;35.50
70323;BME280;57735;56.264;43.898;2023-04-09T06:26:30;102009.53;;;9.09;34.80
70323;BME280;57735;56.264;43.898;2023-04-09T06:29:01;102002.75;;;9.18;34.89
70323;BME280;57735;56.264;43.898;2023-04-09T06:31:32;101990.72;;;9.25;33.91
70323;BME280;57735;56.264;43.898;2023-04-09T06:34:03;102002.44;;;9.35;33.68
70323;BME280;57735;56.264;43.898;2023-04-09T06:36:34;101994.66;;;9.44;33.62
70323;BME280;57735;56.264;43.898;2023-04-09T06:39:06;102002.97;;;9.53;33.23
70323;BME280;57735;56.264;43.898;2023-04-09T06:41:37;101996.34;;;9.58;33.05
70323;BME280;57735;56.264;43.898;2023-04-09T06:44:08;101989.66;;;9.65;32.46
70323;BME280;57735;56.264;43.898;2023-04-09T06:46:38;102002.41;;;9.73;32.37
70323;BME280;57735;56.264;43.898;2023-04-09T06:49:09;101995.47;;;9.83;31.40
70323;BME280;57735;56.264;43.898;2023-04-09T06:51:39;101997.06;;;9.98;31.84
70323;BME280;57735;56.264;43.898;2023-04-09T06:54:10;101994.81;;;10.05;30.88
70323;BME280;57735;56.264;43.898;2023-04-09T06:56:40;101997.34;;;10.06;30.80
70323;BME280;57735;56.264;43.898;2023-04-09T06:59:11;102001.47;;;10.10;30.29
70323;BME280;57735;56.264;43.898;2023-04-09T07:01:41;101997.25;;;10.21;30.18
70323;BME280;57735;56.264;43.898;2023-04-09T07:04:12;102002.09;;;10.27;29.38
70323;BME280;57735;56.264;43.898;2023-04-09T07:06:43;101998.16;;;10.32;29.39
70323;BME280;57735;56.264;43.898;2023-04-09T07:09:13;102000.50;;;10.37;29.20
70323;BME280;57735;56.264;43.898;2023-04-09T07:11:44;101993.94;;;10.41;28.09
70323;BME280;57735;56.264;43.898;2023-04-09T07:14:14;101995.94;;;10.50;27.98
70323;BME280;57735;56.264;43.898;2023-04-09T07:16:45;101997.19;;;10.57;27.96
70323;BME280;57735;56.264;43.898;2023-04-09T07:19:18;101995.78;;;10.64;28.52
70323;BME280;57735;56.264;43.898;2023-04-09T07:21:55;101992.66;;;10.70;28.37
70323;BME280;57735;56.264;43.898;2023-04-09T07:24:26;101990.03;;;10.81;28.60
70323;BME280;57735;56.264;43.898;2023-04-09T07:26:56;101992.94;;;10.90;28.13
70323;BME280;57735;56.264;43.898;2023-04-09T07:29:30;101982.78;;;10.95;27.32
70323;BME280;57735;56.264;43.898;2023-04-09T07:32:00;101979.78;;;10.99;27.20
70323;BME280;57735;56.264;43.898;2023-04-09T07:34:32;101985.84;;;11.01;26.46
70323;BME280;57735;56.264;43.898;2023-04-09T07:37:03;101978.59;;;11.03;26.34
70323;BME280;57735;56.264;43.898;2023-04-09T07:39:33;101980.50;;;11.01;26.16
70323;BME280;57735;56.264;43.898;2023-04-09T07:42:04;101982.44;;;10.99;25.94
70323;BME280;57735;56.264;43.898;2023-04-09T07:44:35;101978.59;;;11.03;26.21
70323;BME280;57735;56.264;43.898;2023-04-09T07:47:08;101983.81;;;11.05;25.80
70323;BME280;57735;56.264;43.898;2023-04-09T07:49:39;101976.66;;;11.05;26.26
70323;BME280;57735;56.264;43.898;2023-04-09T07:52:12;101977.50;;;11.06;25.86
70323;BME280;57735;56.264;43.898;2023-04-09T07:54:46;101967.31;;;11.11;26.22
70323;BME280;57735;56.264;43.898;2023-04-09T07:57:16;101978.72;;;11.13;26.14
70323;BME280;57735;56.264;43.898;2023-04-09T07:59:47;101978.97;;;11.21;26.34
70323;BME280;57735;56.264;43.898;2023-04-09T08:02:17;101971.94;;;11.20;25.66
70323;BME280;57735;56.264;43.898;2023-04-09T08:04:48;101965.53;;;11.23;25.73
70323;BME280;57735;56.264;43.898;2023-04-09T08:07:21;101973.88;;;11.29;25.72
70323;BME280;57735;56.264;43.898;2023-04-09T08:09:54;101969.78;;;11.36;26.15
70323;BME280;57735;56.264;43.898;2023-04-09T08:12:25;101963.72;;;11.45;26.12
70323;BME280;57735;56.264;43.898;2023-04-09T08:14:58;101969.31;;;11.53;25.69
70323;BME280;57735;56.264;43.898;2023-04-09T08:17:29;101965.66;;;11.54;24.90
70323;BME280;57735;56.264;43.898;2023-04-09T08:20:00;101962.50;;;11.61;25.52
70323;BME280;57735;56.264;43.898;2023-04-09T08:22:31;101963.84;;;11.66;25.56
70323;BME280;57735;56.264;43.898;2023-04-09T08:25:01;101958.50;;;11.66;25.04
70323;BME280;57735;56.264;43.898;2023-04-09T08:27:33;101958.03;;;11.72;25.14
70323;BME280;57735;56.264;43.898;2023-04-09T08:30:05;101952.09;;;11.80;25.18
70323;BME280;57735;56.264;43.898;2023-04-09T08:32:36;101947.97;;;11.87;24.67
70323;BME280;57735;56.264;43.898;2023-04-09T08:35:06;101947.19;;;11.96;25.18
70323;BME280;57735;56.264;43.898;2023-04-09T08:37:38;101944.91;;;12.03;25.15
70323;BME280;57735;56.264;43.898;2023-04-09T08:40:08;101945.50;;;12.06;24.89
70323;BME280;57735;56.264;43.898;2023-04-09T08:42:42;101939.41;;;12.04;24.36
70323;BME280;57735;56.264;43.898;2023-04-09T08:45:14;101939.16;;;12.07;24.70
70323;BME280;57735;56.264;43.898;2023-04-09T08:47:45;101933.06;;;12.16;24.98
70323;BME280;57735;56.264;43.898;2023-04-09T08:50:17;101942.06;;;12.15;24.34
70323;BME280;57735;56.264;43.898;2023-04-09T08:52:50;101934.66;;;12.19;24.84
70323;BME280;57735;56.264;43.898;2023-04-09T08:55:20;101939.34;;;12.27;24.53
70323;BME280;57735;56.264;43.898;2023-04-09T08:57:51;101928.28;;;12.31;24.55
70323;BME280;57735;56.264;43.898;2023-04-09T09:00:22;101927.19;;;12.34;24.11
70323;BME280;57735;56.264;43.898;2023-04-09T09:05:42;101924.28;;;12.26;23.86
70323;BME280;57735;56.264;43.898;2023-04-09T09:08:21;101919.06;;;12.24;23.68
70323;BME280;57735;56.264;43.898;2023-04-09T09:10:52;101923.19;;;12.28;24.16
70323;BME280;57735;56.264;43.898;2023-04-09T09:13:24;101915.75;;;12.32;23.47
70323;BME280;57735;56.264;43.898;2023-04-09T09:16:10;101923.06;;;12.30;23.62
70323;BME280;57735;56.264;43.898;2023-04-09T09:18:41;101920.63;;;12.27;23.34
70323;BME280;57735;56.264;43.898;2023-04-09T09:21:15;101922.72;;;12.23;23.43
70323;BME280;57735;56.264;43.898;2023-04-09T09:23:46;101920.75;;;12.25;23.55
70323;BME280;57735;56.264;43.898;2023-04-09T09:26:20;101918.94;;;12.26;23.60
70323;BME280;57735;56.264;43.898;2023-04-09T09:28:52;101915.09;;;12.18;23.25
70323;BME280;57735;56.264;43.898;2023-04-09T09:31:23;101916.66;;;12.21;23.48
70323;BME280;57735;56.264;43.898;2023-04-09T09:33:53;101906.94;;;12.20;23.45
70323;BME280;57735;56.264;43.898;2023-04-09T09:36:31;101909.22;;;12.24;23.76
70323;BME280;57735;56.264;43.898;2023-04-09T09:39:02;101913.22;;;12.30;23.31
70323;BME280;57735;56.264;43.898;2023-04-09T09:41:34;101907.47;;;12.35;23.35
70323;BME280;57735;56.264;43.898;2023-04-09T09:44:06;101903.19;;;12.43;23.68
70323;BME280;57735;56.264;43.898;2023-04-09T09:46:39;101904.31;;;12.62;23.63
70323;BME280;57735;56.264;43.898;2023-04-09T09:49:11;101891.03;;;12.71;23.22
70323;BME280;57735;56.264;43.898;2023-04-09T09:51:44;101894.41;;;12.73;23.23
70323;BME280;57735;56.264;43.898;2023-04-09T09:54:14;101891.47;;;12.76;23.12
70323;BME280;57735;56.264;43.898;2023-04-09T09:56:48;101888.78;;;12.76;23.01
70323;BME280;57735;56.264;43.898;2023-04-09T09:59:22;101889.13;;;12.83;23.45
70323;BME280;57735;56.264;43.898;2023-04-09T10:01:58;101886.22;;;12.96;23.68
70323;BME280;57735;56.264;43.898;2023-04-09T10:04:32;101884.72;;;13.03;23.43
70323;BME280;57735;56.264;43.898;2023-04-09T10:07:04;101880.09;;;13.05;22.96
70323;BME280;57735;56.264;43.898;2023-04-09T10:09:44;101880.88;;;13.16;23.14
70323;BME280;57735;56.264;43.898;2023-04-09T10:12:18;101877.25;;;13.27;22.99
70323;BME280;57735;56.264;43.898;2023-04-09T10:14:52;101877.44;;;13.35;22.88
70323;BME280;57735;56.264;43.898;2023-04-09T10:17:24;101881.81;;;13.36;23.02
70323;BME280;57735;56.264;43.898;2023-04-09T10:19:58;101879.00;;;13.38;22.92
70323;BME280;57735;56.264;43.898;2023-04-09T10:22:30;101887.31;;;13.35;22.62
70323;BME280;57735;56.264;43.898;2023-04-09T10:25:03;101881.69;;;13.38;22.44
70323;BME280;57735;56.264;43.898;2023-04-09T10:27:33;101875.03;;;13.32;22.78
70323;BME280;57735;56.264;43.898;2023-04-09T10:30:04;101874.72;;;13.25;22.42
70323;BME280;57735;56.264;43.898;2023-04-09T10:32:41;101873.19;;;13.23;23.26
70323;BME280;57735;56.264;43.898;2023-04-09T10:35:13;101873.31;;;13.21;22.40
70323;BME280;57735;56.264;43.898;2023-04-09T10:37:54;101867.25;;;13.29;22.75
70323;BME280;57735;56.264;43.898;2023-04-09T10:40:26;101870.28;;;13.45;22.86
70323;BME280;57735;56.264;43.898;2023-04-09T10:42:57;101859.75;;;13.53;22.46
70323;BME280;57735;56.264;43.898;2023-04-09T10:45:38;101856.50;;;13.59;22.90
70323;BME280;57735;56.264;43.898;2023-04-09T10:48:11;101857.66;;;13.57;22.55
70323;BME280;57735;56.264;43.898;2023-04-09T10:50:43;101856.81;;;13.56;22.58
70323;BME280;57735;56.264;43.898;2023-04-09T10:53:23;101857.34;;;13.60;22.47
70323;BME280;57735;56.264;43.898;2023-04-09T10:55:54;101852.00;;;13.60;22.56
70323;BME280;57735;56.264;43.898;2023-04-09T10:58:25;101855.09;;;13.55;22.16
70323;BME280;57735;56.264;43.898;2023-04-09T11:00:56;101849.69;;;13.46;22.68
70323;BME280;57735;56.264;43.898;2023-04-09T11:03:34;101865.75;;;13.36;22.61
70323;BME280;57735;56.264;43.898;2023-04-09T11:06:12;101849.41;;;13.39;22.66
70323;BME280;57735;56.264;43.898;2023-04-09T11:08:46;101852.34;;;13.36;22.08
70323;BME280;57735;56.264;43.898;2023-04-09T11:11:17;101849.13;;;13.42;22.20
70323;BME280;57735;56.264;43.898;2023-04-09T11:13:47;101839.28;;;13.52;22.18
70323;BME280;57735;56.264;43.898;2023-04-09T11:16:18;101839.19;;;13.63;22.42
70323;BME280;57735;56.264;43.898;2023-04-09T11:18:49;101839.63;;;13.69;22.29
70323;BME280;57735;56.264;43.898;2023-04-09T11:21:20;101846.94;;;13.67;22.18
70323;BME280;57735;56.264;43.898;2023-04-09T11:23:51;101838.06;;;13.66;22.25
70323;BME280;57735;56.264;43.898;2023-04-09T11:26:22;101832.69;;;13.66;21.67
70323;BME280;57735;56.264;43.898;2023-04-09T11:28:57;101834.53;;;13.66;21.83
70323;BME280;57735;56.264;43.898;2023-04-09T11:31:27;101832.84;;;13.65;21.63
70323;BME280;57735;56.264;43.898;2023-04-09T11:33:58;101828.91;;;13.69;21.29
70323;BME280;57735;56.264;43.898;2023-04-09T11:36:28;101823.69;;;13.77;21.54
70323;BME280;57735;56.264;43.898;2023-04-09T11:39:00;101825.22;;;13.79;21.36
70323;BME280;57735;56.264;43.898;2023-04-09T11:41:35;101817.50;;;13.86;21.62
70323;BME280;57735;56.264;43.898;2023-04-09T11:44:08;101817.63;;;13.94;21.93
70323;BME280;57735;56.264;43.898;2023-04-09T11:46:39;101818.50;;;14.04;22.27
70323;BME280;57735;56.264;43.898;2023-04-09T11:49:10;101815.69;;;14.06;21.57
70323;BME280;57735;56.264;43.898;2023-04-09T11:51:42;101808.06;;;14.01;21.18
70323;BME280;57735;56.264;43.898;2023-04-09T11:54:13;101804.09;;;14.05;21.54
70323;BME280;57735;56.264;43.898;2023-04-09T11:56:46;101822.28;;;14.11;21.57
70323;BME280;57735;56.264;43.898;2023-04-09T11:59:30;101808.19;;;14.00;20.91
70323;BME280;57735;56.264;43.898;2023-04-09T12:02:00;101797.16;;;13.93;21.56
70323;BME280;57735;56.264;43.898;2023-04-09T12:04:31;101796.75;;;13.88;21.23
70323;BME280;57735;56.264;43.898;2023-04-09T12:07:02;101805.22;;;13.83;21.58
70323;BME280;57735;56.264;43.898;2023-04-09T12:09:33;101797.47;;;13.90;21.89
70323;BME280;57735;56.264;43.898;2023-04-09T12:12:06;101794.34;;;13.94;21.64
70323;BME280;57735;56.264;43.898;2023-04-09T12:14:38;101789.44;;;13.90;21.53
70323;BME280;57735;56.264;43.898;2023-04-09T12:17:14;101790.97;;;13.83;21.08
70323;BME280;57735;56.264;43.898;2023-04-09T12:19:47;101791.81;;;13.83;21.48
70323;BME280;57735;56.264;43.898;2023-04-09T12:22:17;101785.06;;;13.89;21.21
70323;BME280;57735;56.264;43.898;2023-04-09T12:24:48;101784.75;;;13.92;21.22
70323;BME280;57735;56.264;43.898;2023-04-09T12:27:18;101783.75;;;13.93;21.15
70323;BME280;57735;56.264;43.898;2023-04-09T12:29:49;101786.88;;;13.98;21.26
70323;BME280;57735;56.264;43.898;2023-04-09T12:32:20;101781.25;;;14.01;20.77
70323;BME280;57735;56.264;43.898;2023-04-09T12:34:50;101776.44;;;14.05;21.10
70323;BME280;57735;56.264;43.898;2023-04-09T12:37:21;101774.47;;;14.07;21.06
70323;BME280;57735;56.264;43.898;2023-04-09T12:39:51;101779.25;;;14.13;21.30
70323;BME280;57735;56.264;43.898;2023-04-09T12:42:24;101772.91;;;14.23;20.94
70323;BME280;57735;56.264;43.898;2023-04-09T12:44:57;101772.44;;;14.47;20.98
70323;BME280;57735;56.264;43.898;2023-04-09T12:47:28;101772.84;;;14.62;20.43
70323;BME280;57735;56.264;43.898;2023-04-09T12:49:58;101770.06;;;14.91;20.51
70323;BME280;57735;56.264;43.898;2023-04-09T12:52:29;101768.03;;;15.02;19.77
70323;BME280;57735;56.264;43.898;2023-04-09T12:55:00;101767.03;;;15.04;20.08
70323;BME280;57735;56.264;43.898;2023-04-09T12:57:32;101762.84;;;15.19;19.95
70323;BME280;57735;56.264;43.898;2023-04-09T13:00:03;101757.06;;;15.41;20.05
70323;BME280;57735;56.264;43.898;2023-04-09T13:02:35;101759.50;;;15.62;19.76
70323;BME280;57735;56.264;43.898;2023-04-09T13:05:05;101762.28;;;15.88;19.17
70323;BME280;57735;56.264;43.898;2023-04-09T13:07:36;101752.38;;;16.32;19.21
70323;BME280;57735;56.264;43.898;2023-04-09T13:10:07;101754.50;;;16.72;18.47
70323;BME280;57735;56.264;43.898;2023-04-09T13:12:39;101755.84;;;17.02;18.28
70323;BME280;57735;56.264;43.898;2023-04-09T13:15:10;101752.09;;;17.45;18.48
70323;BME280;57735;56.264;43.898;2023-04-09T13:17:40;101742.91;;;17.80;17.96
70323;BME280;57735;56.264;43.898;2023-04-09T13:20:11;101746.28;;;17.82;17.81
70323;BME280;57735;56.264;43.898;2023-04-09T13:22:42;101744.53;;;17.40;17.77
70323;BME280;57735;56.264;43.898;2023-04-09T13:25:17;101736.94;;;16.94;18.71